Masuei Maru No31 — JI3555 — position and weather

sailwx.info

Track history (hours):
 
Tides and Currents Weather Stations Pressure Air Temp Water Temp Dewpoint Dewpoint Depression Visibility Wind Speed Wind Dir Waves Ship Positions

Masuei Maru No31

Last reported at 2018-Apr-22 07:09 UTC. Time now 2018-Apr-22 14:17 UTC.
Position N 34°13' E 135°09'.

Length 32 m.

Type: Tug. MMSI: 431300667.

Date/timePositionNaut miles runAvg speedWind from/ knotsBaromVisibWave heightAir tempDewpointWater temp
2018-Apr-22 07:09N 34°13' E 135°09'1 5.5
2018-Apr-22 07:00N 34°13' E 135°08'0 0.0
2018-Apr-22 00:29N 34°13' E 135°08'1 2.6
2018-Apr-22 00:00N 34°14' E 135°08'0 0.1
2018-Apr-21 23:30N 34°14' E 135°08'1 2.3
2018-Apr-21 22:57N 34°14' E 135°06'1 1.6
2018-Apr-21 22:30N 34°14' E 135°06'3 0.2
2018-Apr-21 06:19N 34°13' E 135°09'2 6.6
2018-Apr-21 06:00N 34°12' E 135°07'5 4.5
2018-Apr-21 04:56N 34°07' E 135°08'1 0.9
2018-Apr-21 04:14N 34°07' E 135°09'0 0.0
2018-Apr-21 03:59N 34°07' E 135°09'0 0.0
2018-Apr-21 03:26N 34°07' E 135°09'0 0.9
2018-Apr-21 02:58N 34°07' E 135°08'1 1.2
2018-Apr-21 01:50N 34°07' E 135°07'0 1.3
2018-Apr-21 01:26N 34°07' E 135°06'1 1.9
2018-Apr-21 01:00N 34°08' E 135°06'1 1.9
2018-Apr-21 00:29N 34°09' E 135°06'2 4.1
2018-Apr-21 00:00N 34°11' E 135°06'1 2.2
2018-Apr-20 23:27N 34°12' E 135°05'2 5.3
2018-Apr-20 23:00N 34°14' E 135°06'1 1.8
2018-Apr-20 22:26N 34°14' E 135°08'0 0.8
2018-Apr-20 22:00N 34°14' E 135°08'0 0.8
2018-Apr-20 21:30N 34°14' E 135°07'  
2018-Apr-18 10:28N 34°13' E 135°09'0 0.1
2018-Apr-18 10:00N 34°13' E 135°09'510.3
2018-Apr-18 09:30N 34°09' E 135°06'2 3.5
2018-Apr-18 08:59N 34°07' E 135°07'2 2.9
2018-Apr-18 08:27N 34°08' E 135°07'510.5
2018-Apr-18 08:00N 34°13' E 135°08'1 1.7
2018-Apr-18 07:28N 34°13' E 135°09'0 0.0
2018-Apr-18 06:58N 34°13' E 135°09'2 5.5
2018-Apr-18 06:30N 34°14' E 135°06'1 2.2
2018-Apr-18 05:58N 34°14' E 135°08'0 1.1
2018-Apr-18 05:30N 34°14' E 135°07'2 3.1
2018-Apr-18 04:56N 34°13' E 135°06'1 1.7
2018-Apr-18 04:30N 34°14' E 135°06'1 1.2
2018-Apr-18 03:52N 34°14' E 135°06'0 0.0
2018-Apr-18 03:28N 34°14' E 135°06'1 2.0
2018-Apr-18 03:00N 34°14' E 135°08'2 3.1
2018-Apr-18 02:29N 34°14' E 135°06'510.3
2018-Apr-18 02:00N 34°09' E 135°07'2 1.8
2018-Apr-18 00:47N 34°07' E 135°08'2 4.4
2018-Apr-18 00:23N 34°08' E 135°06'1 2.9
2018-Apr-17 23:59N 34°09' E 135°06'4 8.7
2018-Apr-17 23:30N 34°13' E 135°09'1 3.0
2018-Apr-17 23:00N 34°14' E 135°07'0 0.1
2018-Apr-17 22:28N 34°14' E 135°07'2 3.7
2018-Apr-17 22:00N 34°14' E 135°05'1 2.2
2018-Apr-17 21:30N 34°13' E 135°06'2 3.6
2018-Apr-17 21:00N 34°14' E 135°08'0 0.9
2018-Apr-17 20:30N 34°14' E 135°07'2 3.4
2018-Apr-17 20:00N 34°13' E 135°09'0 0.0
2018-Apr-17 07:57N 34°13' E 135°09'1 2.7
2018-Apr-17 07:28N 34°13' E 135°07'4 9.4
2018-Apr-17 07:00N 34°09' E 135°07'2 3.6
2018-Apr-17 06:30N 34°07' E 135°07'0 0.0
2018-Apr-17 06:00N 34°07' E 135°07'0 0.1
2018-Apr-17 05:30N 34°07' E 135°06'2 2.1
2018-Apr-17 04:19N 34°07' E 135°04'1 3.7
2018-Apr-17 03:57N 34°08' E 135°05'3 5.7
2018-Apr-17 03:28N 34°11' E 135°06'4 0.2
2018-Apr-16 07:42N 34°13' E 135°09'0 1.8
2018-Apr-16 07:29N 34°13' E 135°09'1 0.1
2018-Apr-16 02:27N 34°13' E 135°08'4 8.5
2018-Apr-16 02:01N 34°09' E 135°06'7 9.9
2018-Apr-16 01:16N 34°02' E 135°04'4 1.0
2018-Apr-15 20:54N 34°06' E 135°05'510.3
2018-Apr-15 20:23N 34°12' E 135°07'3 6.1
2018-Apr-15 19:58N 34°13' E 135°09'0 0.0
2018-Apr-15 19:28N 34°13' E 135°09'0 0.0
2018-Apr-15 18:58N 34°13' E 135°09'0 0.0
2018-Apr-15 18:28N 34°13' E 135°09'0 0.0
2018-Apr-15 17:55N 34°13' E 135°09'0 0.0
2018-Apr-15 17:25N 34°13' E 135°09'0 0.0
2018-Apr-15 16:58N 34°13' E 135°09'0 0.0
2018-Apr-15 16:28N 34°13' E 135°09'0 0.0
2018-Apr-15 15:58N 34°13' E 135°09'0 0.0
2018-Apr-15 15:28N 34°13' E 135°09'0 0.0
2018-Apr-15 14:58N 34°13' E 135°09'0 0.0
2018-Apr-15 14:25N 34°13' E 135°09'0 0.0
2018-Apr-15 13:58N 34°13' E 135°09'0 0.0
2018-Apr-15 13:28N 34°13' E 135°09'0 0.0
2018-Apr-15 12:58N 34°13' E 135°09'0 0.0
2018-Apr-15 12:28N 34°13' E 135°09'0 0.0
2018-Apr-15 11:55N 34°13' E 135°09'0 0.0
2018-Apr-15 11:25N 34°13' E 135°09'0 0.0
2018-Apr-15 10:58N 34°13' E 135°09'0 0.0
2018-Apr-15 10:28N 34°13' E 135°09'0 0.0
2018-Apr-15 09:58N 34°13' E 135°09'0 0.0
2018-Apr-15 09:28N 34°13' E 135°09'0 0.0
2018-Apr-15 08:58N 34°13' E 135°09'0 0.0
2018-Apr-15 08:28N 34°13' E 135°09'0 0.0
2018-Apr-15 07:58N 34°13' E 135°09'0 0.0
2018-Apr-15 07:28N 34°13' E 135°09'0 0.0
2018-Apr-15 06:58N 34°13' E 135°09'0 0.0
2018-Apr-15 06:28N 34°13' E 135°09'0 0.0
2018-Apr-15 05:58N 34°13' E 135°09'0 0.0
2018-Apr-15 05:28N 34°13' E 135°09'0 0.0
2018-Apr-15 04:58N 34°13' E 135°09'0 0.0
2018-Apr-15 04:28N 34°13' E 135°09'0 0.0
2018-Apr-15 03:58N 34°13' E 135°09'0 0.0
2018-Apr-15 03:28N 34°13' E 135°09'0 0.0
2018-Apr-15 02:58N 34°13' E 135°09'0 0.0
2018-Apr-15 02:25N 34°13' E 135°09'0 0.0
2018-Apr-15 01:55N 34°13' E 135°09'0 0.0
2018-Apr-15 01:28N 34°13' E 135°09'0 0.0
2018-Apr-15 00:58N 34°13' E 135°09'0 0.0
2018-Apr-15 00:28N 34°13' E 135°09'0 0.0
2018-Apr-14 23:52N 34°13' E 135°09'0 0.0
2018-Apr-14 23:25N 34°13' E 135°09'0 0.0
2018-Apr-14 22:58N 34°13' E 135°09'0 0.0
2018-Apr-14 22:28N 34°13' E 135°09'0 0.0
2018-Apr-14 21:58N 34°13' E 135°09'0 0.0
2018-Apr-14 21:28N 34°13' E 135°09'0 0.0
2018-Apr-14 20:58N 34°13' E 135°09'0 0.0
2018-Apr-14 20:28N 34°13' E 135°09'0 0.0
2018-Apr-14 19:58N 34°13' E 135°09'0 0.0
2018-Apr-14 19:25N 34°13' E 135°09'0 0.0
2018-Apr-14 18:58N 34°13' E 135°09'0 0.0
2018-Apr-14 18:28N 34°13' E 135°09'0 0.0
2018-Apr-14 17:58N 34°13' E 135°09'0 0.0
2018-Apr-14 17:28N 34°13' E 135°09'0 0.0
2018-Apr-14 16:58N 34°13' E 135°09'0 0.0
2018-Apr-14 16:28N 34°13' E 135°09'0 0.0
2018-Apr-14 15:58N 34°13' E 135°09'0 0.0
2018-Apr-14 15:28N 34°13' E 135°09'0 0.0
2018-Apr-14 14:58N 34°13' E 135°09'0 0.0
2018-Apr-14 14:28N 34°13' E 135°09'0 0.0
2018-Apr-14 13:58N 34°13' E 135°09'0 0.0
2018-Apr-14 13:28N 34°13' E 135°09'0 0.0
2018-Apr-14 12:58N 34°13' E 135°09'0 0.0
2018-Apr-14 12:28N 34°13' E 135°09'0 0.0
2018-Apr-14 11:58N 34°13' E 135°09'0 0.0
2018-Apr-14 11:28N 34°13' E 135°09'0 0.0
2018-Apr-14 10:55N 34°13' E 135°09'0 0.0
2018-Apr-14 10:25N 34°13' E 135°09'0 0.0
2018-Apr-14 09:55N 34°13' E 135°09'0 0.0
2018-Apr-14 09:28N 34°13' E 135°09'0 0.0
2018-Apr-14 08:58N 34°13' E 135°09'0 1.0
2018-Apr-14 08:29N 34°13' E 135°08'0 0.9
2018-Apr-14 07:55N 34°13' E 135°09'0 0.0
2018-Apr-14 07:28N 34°13' E 135°09'0 0.0
2018-Apr-14 06:58N 34°13' E 135°09'0 0.0
2018-Apr-14 06:28N 34°13' E 135°09'2 4.0
2018-Apr-14 05:59N 34°13' E 135°07'1 1.8
2018-Apr-14 05:19N 34°14' E 135°08'0 0.2
2018-Apr-14 04:58N 34°14' E 135°08'1 1.7
2018-Apr-14 04:30N 34°14' E 135°07'0 0.2
2018-Apr-14 03:59N 34°14' E 135°06'1 1.7
2018-Apr-14 03:30N 34°14' E 135°06'3 5.8
2018-Apr-14 03:00N 34°13' E 135°09'0 0.0
2018-Apr-14 02:30N 34°13' E 135°09'0 0.0
2018-Apr-14 02:00N 34°13' E 135°09'0 0.0
2018-Apr-14 01:30N 34°13' E 135°09'0 0.0
2018-Apr-14 01:00N 34°13' E 135°09'2 3.2
2018-Apr-14 00:30N 34°13' E 135°07'1 1.5
2018-Apr-13 23:46N 34°14' E 135°08'0 0.5
2018-Apr-13 23:28N 34°14' E 135°08'1 2.2
2018-Apr-13 22:58N 34°14' E 135°06'1 1.2
2018-Apr-13 22:29N 34°14' E 135°06'3 5.9
2018-Apr-13 21:59N 34°13' E 135°09'1 1.6
2018-Apr-13 21:30N 34°13' E 135°08'1 1.9
2018-Apr-13 20:59N 34°13' E 135°09'0 0.0
2018-Apr-13 20:29N 34°13' E 135°09'  
Track history (hours):
 
Tides and Currents Weather Stations Pressure Air Temp Water Temp Dewpoint Dewpoint Depression Visibility Wind Speed Wind Dir Waves Ship Positions

Masuei Maru No31

Last reported at 2018-Apr-22 07:09 UTC. Time now 2018-Apr-22 14:17 UTC.
Position N 34°13' E 135°09'.

Length 32 m.

Type: Tug. MMSI: 431300667.

Date/timePositionNaut miles runAvg speedWind from/ knotsBaromVisibWave heightAir tempDewpointWater temp
2018-Apr-22 07:09N 34°13' E 135°09'1 5.5
2018-Apr-22 07:00N 34°13' E 135°08'0 0.0
2018-Apr-22 00:29N 34°13' E 135°08'1 2.6
2018-Apr-22 00:00N 34°14' E 135°08'0 0.1
2018-Apr-21 23:30N 34°14' E 135°08'1 2.3
2018-Apr-21 22:57N 34°14' E 135°06'1 1.6
2018-Apr-21 22:30N 34°14' E 135°06'3 0.2
2018-Apr-21 06:19N 34°13' E 135°09'2 6.6
2018-Apr-21 06:00N 34°12' E 135°07'5 4.5
2018-Apr-21 04:56N 34°07' E 135°08'1 0.9
2018-Apr-21 04:14N 34°07' E 135°09'0 0.0
2018-Apr-21 03:59N 34°07' E 135°09'0 0.0
2018-Apr-21 03:26N 34°07' E 135°09'0 0.9
2018-Apr-21 02:58N 34°07' E 135°08'1 1.2
2018-Apr-21 01:50N 34°07' E 135°07'0 1.3
2018-Apr-21 01:26N 34°07' E 135°06'1 1.9
2018-Apr-21 01:00N 34°08' E 135°06'1 1.9
2018-Apr-21 00:29N 34°09' E 135°06'2 4.1
2018-Apr-21 00:00N 34°11' E 135°06'1 2.2
2018-Apr-20 23:27N 34°12' E 135°05'2 5.3
2018-Apr-20 23:00N 34°14' E 135°06'1 1.8
2018-Apr-20 22:26N 34°14' E 135°08'0 0.8
2018-Apr-20 22:00N 34°14' E 135°08'0 0.8
2018-Apr-20 21:30N 34°14' E 135°07'  
2018-Apr-18 10:28N 34°13' E 135°09'0 0.1
2018-Apr-18 10:00N 34°13' E 135°09'510.3
2018-Apr-18 09:30N 34°09' E 135°06'2 3.5
2018-Apr-18 08:59N 34°07' E 135°07'2 2.9
2018-Apr-18 08:27N 34°08' E 135°07'510.5
2018-Apr-18 08:00N 34°13' E 135°08'1 1.7
2018-Apr-18 07:28N 34°13' E 135°09'0 0.0
2018-Apr-18 06:58N 34°13' E 135°09'2 5.5
2018-Apr-18 06:30N 34°14' E 135°06'1 2.2
2018-Apr-18 05:58N 34°14' E 135°08'0 1.1
2018-Apr-18 05:30N 34°14' E 135°07'2 3.1
2018-Apr-18 04:56N 34°13' E 135°06'1 1.7
2018-Apr-18 04:30N 34°14' E 135°06'1 1.2
2018-Apr-18 03:52N 34°14' E 135°06'0 0.0
2018-Apr-18 03:28N 34°14' E 135°06'1 2.0
2018-Apr-18 03:00N 34°14' E 135°08'2 3.1
2018-Apr-18 02:29N 34°14' E 135°06'510.3
2018-Apr-18 02:00N 34°09' E 135°07'2 1.8
2018-Apr-18 00:47N 34°07' E 135°08'2 4.4
2018-Apr-18 00:23N 34°08' E 135°06'1 2.9
2018-Apr-17 23:59N 34°09' E 135°06'4 8.7
2018-Apr-17 23:30N 34°13' E 135°09'1 3.0
2018-Apr-17 23:00N 34°14' E 135°07'0 0.1
2018-Apr-17 22:28N 34°14' E 135°07'2 3.7
2018-Apr-17 22:00N 34°14' E 135°05'1 2.2
2018-Apr-17 21:30N 34°13' E 135°06'2 3.6
2018-Apr-17 21:00N 34°14' E 135°08'0 0.9
2018-Apr-17 20:30N 34°14' E 135°07'2 3.4
2018-Apr-17 20:00N 34°13' E 135°09'0 0.0
2018-Apr-17 07:57N 34°13' E 135°09'1 2.7
2018-Apr-17 07:28N 34°13' E 135°07'4 9.4
2018-Apr-17 07:00N 34°09' E 135°07'2 3.6
2018-Apr-17 06:30N 34°07' E 135°07'0 0.0
2018-Apr-17 06:00N 34°07' E 135°07'0 0.1
2018-Apr-17 05:30N 34°07' E 135°06'2 2.1
2018-Apr-17 04:19N 34°07' E 135°04'1 3.7
2018-Apr-17 03:57N 34°08' E 135°05'3 5.7
2018-Apr-17 03:28N 34°11' E 135°06'4 0.2
2018-Apr-16 07:42N 34°13' E 135°09'0 1.8
2018-Apr-16 07:29N 34°13' E 135°09'1 0.1
2018-Apr-16 02:27N 34°13' E 135°08'4 8.5
2018-Apr-16 02:01N 34°09' E 135°06'7 9.9
2018-Apr-16 01:16N 34°02' E 135°04'4 1.0
2018-Apr-15 20:54N 34°06' E 135°05'510.3
2018-Apr-15 20:23N 34°12' E 135°07'3 6.1
2018-Apr-15 19:58N 34°13' E 135°09'0 0.0
2018-Apr-15 19:28N 34°13' E 135°09'0 0.0
2018-Apr-15 18:58N 34°13' E 135°09'0 0.0
2018-Apr-15 18:28N 34°13' E 135°09'0 0.0
2018-Apr-15 17:55N 34°13' E 135°09'0 0.0
2018-Apr-15 17:25N 34°13' E 135°09'0 0.0
2018-Apr-15 16:58N 34°13' E 135°09'0 0.0
2018-Apr-15 16:28N 34°13' E 135°09'0 0.0
2018-Apr-15 15:58N 34°13' E 135°09'0 0.0
2018-Apr-15 15:28N 34°13' E 135°09'0 0.0
2018-Apr-15 14:58N 34°13' E 135°09'0 0.0
2018-Apr-15 14:25N 34°13' E 135°09'0 0.0
2018-Apr-15 13:58N 34°13' E 135°09'0 0.0
2018-Apr-15 13:28N 34°13' E 135°09'0 0.0
2018-Apr-15 12:58N 34°13' E 135°09'0 0.0
2018-Apr-15 12:28N 34°13' E 135°09'0 0.0
2018-Apr-15 11:55N 34°13' E 135°09'0 0.0
2018-Apr-15 11:25N 34°13' E 135°09'0 0.0
2018-Apr-15 10:58N 34°13' E 135°09'0 0.0
2018-Apr-15 10:28N 34°13' E 135°09'0 0.0
2018-Apr-15 09:58N 34°13' E 135°09'0 0.0
2018-Apr-15 09:28N 34°13' E 135°09'0 0.0
2018-Apr-15 08:58N 34°13' E 135°09'0 0.0
2018-Apr-15 08:28N 34°13' E 135°09'0 0.0
2018-Apr-15 07:58N 34°13' E 135°09'0 0.0
2018-Apr-15 07:28N 34°13' E 135°09'0 0.0
2018-Apr-15 06:58N 34°13' E 135°09'0 0.0
2018-Apr-15 06:28N 34°13' E 135°09'0 0.0
2018-Apr-15 05:58N 34°13' E 135°09'0 0.0
2018-Apr-15 05:28N 34°13' E 135°09'0 0.0
2018-Apr-15 04:58N 34°13' E 135°09'0 0.0
2018-Apr-15 04:28N 34°13' E 135°09'0 0.0
2018-Apr-15 03:58N 34°13' E 135°09'0 0.0
2018-Apr-15 03:28N 34°13' E 135°09'0 0.0
2018-Apr-15 02:58N 34°13' E 135°09'0 0.0
2018-Apr-15 02:25N 34°13' E 135°09'0 0.0
2018-Apr-15 01:55N 34°13' E 135°09'0 0.0
2018-Apr-15 01:28N 34°13' E 135°09'0 0.0
2018-Apr-15 00:58N 34°13' E 135°09'0 0.0
2018-Apr-15 00:28N 34°13' E 135°09'0 0.0
2018-Apr-14 23:52N 34°13' E 135°09'0 0.0
2018-Apr-14 23:25N 34°13' E 135°09'0 0.0
2018-Apr-14 22:58N 34°13' E 135°09'0 0.0
2018-Apr-14 22:28N 34°13' E 135°09'0 0.0
2018-Apr-14 21:58N 34°13' E 135°09'0 0.0
2018-Apr-14 21:28N 34°13' E 135°09'0 0.0
2018-Apr-14 20:58N 34°13' E 135°09'0 0.0
2018-Apr-14 20:28N 34°13' E 135°09'0 0.0
2018-Apr-14 19:58N 34°13' E 135°09'0 0.0
2018-Apr-14 19:25N 34°13' E 135°09'0 0.0
2018-Apr-14 18:58N 34°13' E 135°09'0 0.0
2018-Apr-14 18:28N 34°13' E 135°09'0 0.0
2018-Apr-14 17:58N 34°13' E 135°09'0 0.0
2018-Apr-14 17:28N 34°13' E 135°09'0 0.0
2018-Apr-14 16:58N 34°13' E 135°09'0 0.0
2018-Apr-14 16:28N 34°13' E 135°09'0 0.0
2018-Apr-14 15:58N 34°13' E 135°09'0 0.0
2018-Apr-14 15:28N 34°13' E 135°09'0 0.0
2018-Apr-14 14:58N 34°13' E 135°09'0 0.0
2018-Apr-14 14:28N 34°13' E 135°09'0 0.0
2018-Apr-14 13:58N 34°13' E 135°09'0 0.0
2018-Apr-14 13:28N 34°13' E 135°09'0 0.0
2018-Apr-14 12:58N 34°13' E 135°09'0 0.0
2018-Apr-14 12:28N 34°13' E 135°09'0 0.0
2018-Apr-14 11:58N 34°13' E 135°09'0 0.0
2018-Apr-14 11:28N 34°13' E 135°09'0 0.0
2018-Apr-14 10:55N 34°13' E 135°09'0 0.0
2018-Apr-14 10:25N 34°13' E 135°09'0 0.0
2018-Apr-14 09:55N 34°13' E 135°09'0 0.0
2018-Apr-14 09:28N 34°13' E 135°09'0 0.0
2018-Apr-14 08:58N 34°13' E 135°09'0 1.0
2018-Apr-14 08:29N 34°13' E 135°08'0 0.9
2018-Apr-14 07:55N 34°13' E 135°09'0 0.0
2018-Apr-14 07:28N 34°13' E 135°09'0 0.0
2018-Apr-14 06:58N 34°13' E 135°09'0 0.0
2018-Apr-14 06:28N 34°13' E 135°09'2 4.0
2018-Apr-14 05:59N 34°13' E 135°07'1 1.8
2018-Apr-14 05:19N 34°14' E 135°08'0 0.2
2018-Apr-14 04:58N 34°14' E 135°08'1 1.7
2018-Apr-14 04:30N 34°14' E 135°07'0 0.2
2018-Apr-14 03:59N 34°14' E 135°06'1 1.7
2018-Apr-14 03:30N 34°14' E 135°06'3 5.8
2018-Apr-14 03:00N 34°13' E 135°09'0 0.0
2018-Apr-14 02:30N 34°13' E 135°09'0 0.0
2018-Apr-14 02:00N 34°13' E 135°09'0 0.0
2018-Apr-14 01:30N 34°13' E 135°09'0 0.0
2018-Apr-14 01:00N 34°13' E 135°09'2 3.2
2018-Apr-14 00:30N 34°13' E 135°07'1 1.5
2018-Apr-13 23:46N 34°14' E 135°08'0 0.5
2018-Apr-13 23:28N 34°14' E 135°08'1 2.2
2018-Apr-13 22:58N 34°14' E 135°06'1 1.2
2018-Apr-13 22:29N 34°14' E 135°06'3 5.9
2018-Apr-13 21:59N 34°13' E 135°09'1 1.6
2018-Apr-13 21:30N 34°13' E 135°08'1 1.9
2018-Apr-13 20:59N 34°13' E 135°09'0 0.0
2018-Apr-13 20:29N 34°13' E 135°09'  

Dump ship's entire track history